sensor_id;sensor_type;location;lat;lon;timestamp;pressure;altitude;pressure_sealevel;temperature;humidity
42111;BME280;27766;52.174;5.456;2023-03-01T00:01:20;103146.09;;;-0.87;100.00
42111;BME280;27766;52.174;5.456;2023-03-01T00:03:48;103140.72;;;-0.90;100.00
42111;BME280;27766;52.174;5.456;2023-03-01T00:06:16;103148.16;;;-0.92;100.00
42111;BME280;27766;52.174;5.456;2023-03-01T00:08:43;103142.66;;;-0.97;100.00
42111;BME280;27766;52.174;5.456;2023-03-01T00:11:23;103145.34;;;-0.95;100.00
42111;BME280;27766;52.174;5.456;2023-03-01T00:13:55;103146.22;;;-0.94;100.00
42111;BME280;27766;52.174;5.456;2023-03-01T00:16:26;103146.41;;;-0.93;100.00
42111;BME280;27766;52.174;5.456;2023-03-01T00:18:56;103146.97;;;-0.96;100.00
42111;BME280;27766;52.174;5.456;2023-03-01T00:21:26;103139.44;;;-1.03;100.00
42111;BME280;27766;52.174;5.456;2023-03-01T00:23:55;103142.94;;;-0.93;100.00
42111;BME280;27766;52.174;5.456;2023-03-01T00:26:23;103135.31;;;-0.93;100.00
42111;BME280;27766;52.174;5.456;2023-03-01T00:28:50;103135.00;;;-0.97;100.00
42111;BME280;27766;52.174;5.456;2023-03-01T00:31:21;103135.28;;;-1.02;100.00
42111;BME280;27766;52.174;5.456;2023-03-01T00:33:54;103130.47;;;-1.08;100.00
42111;BME280;27766;52.174;5.456;2023-03-01T00:36:27;103122.63;;;-1.18;100.00
42111;BME280;27766;52.174;5.456;2023-03-01T00:38:55;103124.03;;;-1.13;100.00
42111;BME280;27766;52.174;5.456;2023-03-01T00:41:24;103137.47;;;-1.14;100.00
42111;BME280;27766;52.174;5.456;2023-03-01T00:43:55;103130.72;;;-1.14;100.00
42111;BME280;27766;52.174;5.456;2023-03-01T00:46:25;103134.47;;;-1.10;100.00
42111;BME280;27766;52.174;5.456;2023-03-01T00:48:56;103138.69;;;-1.10;100.00
42111;BME280;27766;52.174;5.456;2023-03-01T00:51:26;103132.53;;;-1.13;100.00
42111;BME280;27766;52.174;5.456;2023-03-01T00:53:56;103132.53;;;-1.13;100.00
42111;BME280;27766;52.174;5.456;2023-03-01T00:56:24;103124.44;;;-1.17;100.00
42111;BME280;27766;52.174;5.456;2023-03-01T00:58:51;103124.13;;;-1.20;100.00
42111;BME280;27766;52.174;5.456;2023-03-01T01:01:22;103124.13;;;-1.20;100.00
42111;BME280;27766;52.174;5.456;2023-03-01T01:03:52;103121.13;;;-1.25;100.00
42111;BME280;27766;52.174;5.456;2023-03-01T01:06:28;103119.91;;;-1.29;100.00
42111;BME280;27766;52.174;5.456;2023-03-01T01:08:56;103102.53;;;-1.33;100.00
42111;BME280;27766;52.174;5.456;2023-03-01T01:11:26;103098.09;;;-1.26;100.00
42111;BME280;27766;52.174;5.456;2023-03-01T01:13:53;103096.84;;;-1.30;100.00
42111;BME280;27766;52.174;5.456;2023-03-01T01:16:23;103093.88;;;-1.35;100.00
42111;BME280;27766;52.174;5.456;2023-03-01T01:18:51;103090.28;;;-1.37;100.00
42111;BME280;27766;52.174;5.456;2023-03-01T01:21:20;103091.00;;;-1.38;100.00
42111;BME280;27766;52.174;5.456;2023-03-01T01:23:47;103094.28;;;-1.39;100.00
42111;BME280;27766;52.174;5.456;2023-03-01T01:26:24;103094.28;;;-1.39;100.00
42111;BME280;27766;52.174;5.456;2023-03-01T01:28:51;103087.72;;;-1.37;100.00
42111;BME280;27766;52.174;5.456;2023-03-01T01:31:20;103084.88;;;-1.40;100.00
42111;BME280;27766;52.174;5.456;2023-03-01T01:33:50;103069.59;;;-1.49;100.00
42111;BME280;27766;52.174;5.456;2023-03-01T01:36:18;103079.50;;;-1.43;100.00
42111;BME280;27766;52.174;5.456;2023-03-01T01:38:45;103078.28;;;-1.47;100.00
42111;BME280;27766;52.174;5.456;2023-03-01T01:41:12;103077.94;;;-1.50;100.00
42111;BME280;27766;52.174;5.456;2023-03-01T01:43:45;103085.16;;;-1.46;100.00
42111;BME280;27766;52.174;5.456;2023-03-01T01:48:49;103070.78;;;-1.54;100.00
42111;BME280;27766;52.174;5.456;2023-03-01T01:51:24;103056.94;;;-1.65;100.00
42111;BME280;27766;52.174;5.456;2023-03-01T01:53:56;103076.88;;;-1.52;100.00
42111;BME280;27766;52.174;5.456;2023-03-01T01:56:26;103069.25;;;-1.52;100.00
42111;BME280;27766;52.174;5.456;2023-03-01T01:58:55;103071.06;;;-1.51;100.00
42111;BME280;27766;52.174;5.456;2023-03-01T02:01:23;103073.59;;;-1.51;100.00
42111;BME280;27766;52.174;5.456;2023-03-01T02:03:50;103063.88;;;-1.55;100.00
42111;BME280;27766;52.174;5.456;2023-03-01T02:06:38;103068.22;;;-1.54;100.00
42111;BME280;27766;52.174;5.456;2023-03-01T02:09:13;103060.28;;;-1.57;100.00
42111;BME280;27766;52.174;5.456;2023-03-01T02:11:41;103061.34;;;-1.55;100.00
42111;BME280;27766;52.174;5.456;2023-03-01T02:14:10;103059.38;;;-1.57;100.00
42111;BME280;27766;52.174;5.456;2023-03-01T02:16:37;103060.13;;;-1.58;100.00
42111;BME280;27766;52.174;5.456;2023-03-01T02:19:05;103064.47;;;-1.57;100.00
42111;BME280;27766;52.174;5.456;2023-03-01T02:21:55;103060.28;;;-1.57;100.00
42111;BME280;27766;52.174;5.456;2023-03-01T02:24:59;103061.59;;;-1.61;100.00
42111;BME280;27766;52.174;5.456;2023-03-01T02:27:38;103053.66;;;-1.64;100.00
42111;BME280;27766;52.174;5.456;2023-03-01T02:30:07;103056.03;;;-1.65;100.00
42111;BME280;27766;52.174;5.456;2023-03-01T02:32:35;103050.50;;;-1.70;100.00
42111;BME280;27766;52.174;5.456;2023-03-01T02:35:02;103042.88;;;-1.70;100.00
42111;BME280;27766;52.174;5.456;2023-03-01T02:37:35;103048.53;;;-1.72;100.00
42111;BME280;27766;52.174;5.456;2023-03-01T02:40:06;103040.47;;;-1.68;100.00
42111;BME280;27766;52.174;5.456;2023-03-01T02:42:47;103042.00;;;-1.70;100.00
42111;BME280;27766;52.174;5.456;2023-03-01T02:45:15;103036.72;;;-1.72;100.00
42111;BME280;27766;52.174;5.456;2023-03-01T02:47:42;103036.00;;;-1.71;100.00
42111;BME280;27766;52.174;5.456;2023-03-01T02:50:26;103031.09;;;-1.69;100.00
42111;BME280;27766;52.174;5.456;2023-03-01T02:55:37;103028.81;;;-1.75;100.00
42111;BME280;27766;52.174;5.456;2023-03-01T02:58:05;103030.28;;;-1.77;100.00
42111;BME280;27766;52.174;5.456;2023-03-01T03:00:42;103036.28;;;-1.77;100.00
42111;BME280;27766;52.174;5.456;2023-03-01T03:03:15;103026.84;;;-1.78;100.00
42111;BME280;27766;52.174;5.456;2023-03-01T03:05:43;103031.19;;;-1.77;100.00
42111;BME280;27766;52.174;5.456;2023-03-01T03:08:11;103034.88;;;-1.82;100.00
42111;BME280;27766;52.174;5.456;2023-03-01T03:10:40;103024.72;;;-1.82;100.00
42111;BME280;27766;52.174;5.456;2023-03-01T03:13:10;103019.34;;;-1.85;100.00
42111;BME280;27766;52.174;5.456;2023-03-01T03:15:38;103018.59;;;-1.84;100.00
42111;BME280;27766;52.174;5.456;2023-03-01T03:18:09;103018.75;;;-1.82;100.00
42111;BME280;27766;52.174;5.456;2023-03-01T03:20:37;103011.16;;;-1.82;100.00
42111;BME280;27766;52.174;5.456;2023-03-01T03:23:06;103006.06;;;-1.82;100.00
42111;BME280;27766;52.174;5.456;2023-03-01T03:25:33;103009.34;;;-1.83;100.00
42111;BME280;27766;52.174;5.456;2023-03-01T03:28:05;103013.50;;;-1.84;100.00
42111;BME280;27766;52.174;5.456;2023-03-01T03:30:38;103010.34;;;-1.90;100.00
42111;BME280;27766;52.174;5.456;2023-03-01T03:33:10;103012.97;;;-1.97;100.00
42111;BME280;27766;52.174;5.456;2023-03-01T03:35:42;103010.16;;;-2.00;100.00
42111;BME280;27766;52.174;5.456;2023-03-01T03:38:11;103001.72;;;-2.08;100.00
42111;BME280;27766;52.174;5.456;2023-03-01T03:40:46;103016.84;;;-2.01;100.00
42111;BME280;27766;52.174;5.456;2023-03-01T03:43:16;103010.69;;;-2.03;100.00
42111;BME280;27766;52.174;5.456;2023-03-01T03:45:45;103016.38;;;-2.05;100.00
42111;BME280;27766;52.174;5.456;2023-03-01T03:48:13;103006.66;;;-2.10;100.00
42111;BME280;27766;52.174;5.456;2023-03-01T03:50:41;103002.91;;;-2.13;100.00
42111;BME280;27766;52.174;5.456;2023-03-01T03:53:11;103002.25;;;-2.19;100.00
42111;BME280;27766;52.174;5.456;2023-03-01T03:55:39;103001.59;;;-2.26;100.00
42111;BME280;27766;52.174;5.456;2023-03-01T03:58:09;102996.22;;;-2.29;100.00
42111;BME280;27766;52.174;5.456;2023-03-01T04:00:42;102998.59;;;-2.30;100.00
42111;BME280;27766;52.174;5.456;2023-03-01T04:03:10;103006.03;;;-2.32;100.00
42111;BME280;27766;52.174;5.456;2023-03-01T04:05:39;103010.13;;;-2.25;100.00
42111;BME280;27766;52.174;5.456;2023-03-01T04:08:07;103001.13;;;-2.30;100.00
42111;BME280;27766;52.174;5.456;2023-03-01T04:10:37;103000.06;;;-2.32;100.00
42111;BME280;27766;52.174;5.456;2023-03-01T04:13:05;102997.38;;;-2.34;100.00
42111;BME280;27766;52.174;5.456;2023-03-01T04:15:34;103001.38;;;-2.36;100.00
42111;BME280;27766;52.174;5.456;2023-03-01T04:18:01;102992.06;;;-2.44;100.00
42111;BME280;27766;52.174;5.456;2023-03-01T04:20:31;103003.75;;;-2.38;100.00
42111;BME280;27766;52.174;5.456;2023-03-01T04:23:12;103010.47;;;-2.38;100.00
42111;BME280;27766;52.174;5.456;2023-03-01T04:28:26;103004.50;;;-2.39;100.00
42111;BME280;27766;52.174;5.456;2023-03-01T04:30:56;103006.84;;;-2.40;100.00
42111;BME280;27766;52.174;5.456;2023-03-01T04:33:25;103012.66;;;-2.41;100.00
42111;BME280;27766;52.174;5.456;2023-03-01T04:35:53;103014.31;;;-2.42;100.00
42111;BME280;27766;52.174;5.456;2023-03-01T04:38:20;102995.78;;;-2.49;100.00
42111;BME280;27766;52.174;5.456;2023-03-01T04:40:48;103008.28;;;-2.51;100.00
42111;BME280;27766;52.174;5.456;2023-03-01T04:43:15;103003.63;;;-2.55;100.00
42111;BME280;27766;52.174;5.456;2023-03-01T04:45:42;102999.88;;;-2.59;100.00
42111;BME280;27766;52.174;5.456;2023-03-01T04:48:09;102997.72;;;-2.63;100.00
42111;BME280;27766;52.174;5.456;2023-03-01T04:50:36;102995.75;;;-2.65;100.00
42111;BME280;27766;52.174;5.456;2023-03-01T04:53:03;102995.91;;;-2.64;100.00
42111;BME280;27766;52.174;5.456;2023-03-01T04:55:30;102992.66;;;-2.63;100.00
42111;BME280;27766;52.174;5.456;2023-03-01T04:57:58;102972.78;;;-2.67;100.00
42111;BME280;27766;52.174;5.456;2023-03-01T05:00:25;102978.00;;;-2.65;100.00
42111;BME280;27766;52.174;5.456;2023-03-01T05:02:56;102968.78;;;-2.65;100.00
42111;BME280;27766;52.174;5.456;2023-03-01T05:05:28;102962.66;;;-2.67;100.00
42111;BME280;27766;52.174;5.456;2023-03-01T05:07:58;102967.72;;;-2.67;100.00
42111;BME280;27766;52.174;5.456;2023-03-01T05:10:29;102957.25;;;-2.70;100.00
42111;BME280;27766;52.174;5.456;2023-03-01T05:12:58;102961.28;;;-2.72;100.00
42111;BME280;27766;52.174;5.456;2023-03-01T05:15:26;102960.03;;;-2.76;100.00
42111;BME280;27766;52.174;5.456;2023-03-01T05:17:56;102958.50;;;-2.82;100.00
42111;BME280;27766;52.174;5.456;2023-03-01T05:20:27;102955.47;;;-2.87;100.00
42111;BME280;27766;52.174;5.456;2023-03-01T05:22:57;102944.25;;;-2.89;100.00
42111;BME280;27766;52.174;5.456;2023-03-01T05:25:26;102943.94;;;-2.92;100.00
42111;BME280;27766;52.174;5.456;2023-03-01T05:27:54;102940.09;;;-2.89;100.00
42111;BME280;27766;52.174;5.456;2023-03-01T05:30:21;102943.75;;;-2.94;100.00
42111;BME280;27766;52.174;5.456;2023-03-01T05:32:50;102938.03;;;-3.00;100.00
42111;BME280;27766;52.174;5.456;2023-03-01T05:35:23;102926.38;;;-3.07;100.00
42111;BME280;27766;52.174;5.456;2023-03-01T05:37:50;102935.38;;;-3.02;100.00
42111;BME280;27766;52.174;5.456;2023-03-01T05:40:20;102934.78;;;-2.99;100.00
42111;BME280;27766;52.174;5.456;2023-03-01T05:42:55;102933.13;;;-2.98;100.00
42111;BME280;27766;52.174;5.456;2023-03-01T05:45:25;102926.28;;;-2.99;100.00
42111;BME280;27766;52.174;5.456;2023-03-01T05:47:53;102927.53;;;-2.96;100.00
42111;BME280;27766;52.174;5.456;2023-03-01T05:50:29;102929.28;;;-2.95;100.00
42111;BME280;27766;52.174;5.456;2023-03-01T05:53:02;102921.13;;;-2.92;100.00
42111;BME280;27766;52.174;5.456;2023-03-01T05:55:30;102921.13;;;-2.92;100.00
42111;BME280;27766;52.174;5.456;2023-03-01T05:57:59;102923.69;;;-2.92;100.00
42111;BME280;27766;52.174;5.456;2023-03-01T06:00:28;102920.81;;;-2.95;100.00
42111;BME280;27766;52.174;5.456;2023-03-01T06:02:57;102919.44;;;-3.00;100.00
42111;BME280;27766;52.174;5.456;2023-03-01T06:05:25;102921.97;;;-3.00;100.00
42111;BME280;27766;52.174;5.456;2023-03-01T06:07:53;102918.84;;;-2.98;100.00
42111;BME280;27766;52.174;5.456;2023-03-01T06:10:24;102915.97;;;-3.01;100.00
42111;BME280;27766;52.174;5.456;2023-03-01T06:12:54;102913.88;;;-3.05;100.00
42111;BME280;27766;52.174;5.456;2023-03-01T06:15:23;102894.00;;;-3.09;100.00
42111;BME280;27766;52.174;5.456;2023-03-01T06:17:52;102916.31;;;-2.98;100.00
42111;BME280;27766;52.174;5.456;2023-03-01T06:20:25;102909.09;;;-3.02;100.00
42111;BME280;27766;52.174;5.456;2023-03-01T06:22:55;102923.50;;;-2.94;100.00
42111;BME280;27766;52.174;5.456;2023-03-01T06:25:25;102919.34;;;-2.93;100.00
42111;BME280;27766;52.174;5.456;2023-03-01T06:27:54;102920.06;;;-2.94;100.00
42111;BME280;27766;52.174;5.456;2023-03-01T06:30:24;102930.22;;;-2.94;100.00
42111;BME280;27766;52.174;5.456;2023-03-01T06:32:52;102918.69;;;-2.99;100.00
42111;BME280;27766;52.174;5.456;2023-03-01T06:35:19;102914.66;;;-2.97;100.00
42111;BME280;27766;52.174;5.456;2023-03-01T06:37:47;102912.56;;;-3.02;100.00
42111;BME280;27766;52.174;5.456;2023-03-01T06:40:15;102926.03;;;-2.94;100.00
42111;BME280;27766;52.174;5.456;2023-03-01T06:42:43;102926.03;;;-2.94;100.00
42111;BME280;27766;52.174;5.456;2023-03-01T06:45:11;102922.03;;;-2.92;100.00
42111;BME280;27766;52.174;5.456;2023-03-01T06:47:38;102919.16;;;-2.95;100.00
42111;BME280;27766;52.174;5.456;2023-03-01T06:50:06;102920.81;;;-2.95;100.00
42111;BME280;27766;52.174;5.456;2023-03-01T06:52:33;102931.66;;;-2.96;100.00
42111;BME280;27766;52.174;5.456;2023-03-01T06:55:00;102921.97;;;-3.00;100.00
42111;BME280;27766;52.174;5.456;2023-03-01T06:57:28;102917.47;;;-3.03;100.00
42111;BME280;27766;52.174;5.456;2023-03-01T06:59:55;102928.41;;;-2.95;100.00
42111;BME280;27766;52.174;5.456;2023-03-01T07:02:23;102921.13;;;-2.92;100.00
42111;BME280;27766;52.174;5.456;2023-03-01T07:04:51;102922.38;;;-2.89;100.00
42111;BME280;27766;52.174;5.456;2023-03-01T07:07:18;102919.56;;;-2.83;100.00
42111;BME280;27766;52.174;5.456;2023-03-01T07:09:46;102914.66;;;-2.81;100.00
42111;BME280;27766;52.174;5.456;2023-03-01T07:12:13;102928.03;;;-2.66;100.00
42111;BME280;27766;52.174;5.456;2023-03-01T07:14:40;102901.56;;;-2.77;100.00
42111;BME280;27766;52.174;5.456;2023-03-01T07:17:07;102920.78;;;-2.63;100.00
42111;BME280;27766;52.174;5.456;2023-03-01T07:19:35;102928.84;;;-2.59;100.00
42111;BME280;27766;52.174;5.456;2023-03-01T07:22:03;102924.56;;;-2.51;100.00
42111;BME280;27766;52.174;5.456;2023-03-01T07:24:31;102931.19;;;-2.44;100.00
42111;BME280;27766;52.174;5.456;2023-03-01T07:26:58;102931.84;;;-2.38;100.00
42111;BME280;27766;52.174;5.456;2023-03-01T07:29:25;102921.53;;;-2.40;100.00
42111;BME280;27766;52.174;5.456;2023-03-01T07:31:53;102917.69;;;-2.36;100.00
42111;BME280;27766;52.174;5.456;2023-03-01T07:34:20;102937.91;;;-2.20;100.00
42111;BME280;27766;52.174;5.456;2023-03-01T07:36:47;102928.22;;;-2.15;100.00
42111;BME280;27766;52.174;5.456;2023-03-01T07:39:15;102942.50;;;-2.00;100.00
42111;BME280;27766;52.174;5.456;2023-03-01T07:41:44;102933.09;;;-2.01;100.00
42111;BME280;27766;52.174;5.456;2023-03-01T07:44:11;102950.81;;;-1.85;100.00
42111;BME280;27766;52.174;5.456;2023-03-01T07:46:38;102936.78;;;-1.81;100.00
42111;BME280;27766;52.174;5.456;2023-03-01T07:49:05;102941.88;;;-1.81;100.00
42111;BME280;27766;52.174;5.456;2023-03-01T07:51:33;102942.34;;;-1.68;100.00
42111;BME280;27766;52.174;5.456;2023-03-01T07:54:00;102940.75;;;-1.58;100.00
42111;BME280;27766;52.174;5.456;2023-03-01T07:56:27;102931.22;;;-1.52;100.00
42111;BME280;27766;52.174;5.456;2023-03-01T07:58:55;102946.31;;;-1.36;100.00
42111;BME280;27766;52.174;5.456;2023-03-01T08:01:22;102942.16;;;-1.36;100.00
42111;BME280;27766;52.174;5.456;2023-03-01T08:03:50;102944.13;;;-1.24;100.00
42111;BME280;27766;52.174;5.456;2023-03-01T08:06:18;102933.22;;;-1.32;100.00
42111;BME280;27766;52.174;5.456;2023-03-01T08:08:45;102951.47;;;-1.19;100.00
42111;BME280;27766;52.174;5.456;2023-03-01T08:11:14;102939.63;;;-1.18;100.00
42111;BME280;27766;52.174;5.456;2023-03-01T08:13:42;102946.69;;;-1.07;100.00
42111;BME280;27766;52.174;5.456;2023-03-01T08:16:12;102949.97;;;-0.99;100.00
42111;BME280;27766;52.174;5.456;2023-03-01T08:18:40;102930.44;;;-1.00;100.00
42111;BME280;27766;52.174;5.456;2023-03-01T08:21:10;102944.47;;;-0.86;100.00
42111;BME280;27766;52.174;5.456;2023-03-01T08:23:38;102940.31;;;-0.86;100.00
42111;BME280;27766;52.174;5.456;2023-03-01T08:26:07;102943.28;;;-0.81;100.00
42111;BME280;27766;52.174;5.456;2023-03-01T08:28:35;102944.31;;;-0.79;100.00
42111;BME280;27766;52.174;5.456;2023-03-01T08:31:02;102947.78;;;-0.70;100.00
42111;BME280;27766;52.174;5.456;2023-03-01T08:33:29;102936.09;;;-0.68;100.00
42111;BME280;27766;52.174;5.456;2023-03-01T08:36:05;102929.38;;;-0.58;100.00
42111;BME280;27766;52.174;5.456;2023-03-01T08:38:34;102934.28;;;-0.42;100.00
42111;BME280;27766;52.174;5.456;2023-03-01T08:41:03;102929.16;;;-0.34;100.00
42111;BME280;27766;52.174;5.456;2023-03-01T08:43:30;102928.25;;;-0.25;100.00
42111;BME280;27766;52.174;5.456;2023-03-01T08:45:57;102930.94;;;-0.15;100.00
42111;BME280;27766;52.174;5.456;2023-03-01T08:48:25;102932.69;;;-0.05;100.00
42111;BME280;27766;52.174;5.456;2023-03-01T08:50:54;102926.94;;;0.15;100.00
42111;BME280;27766;52.174;5.456;2023-03-01T08:53:21;102917.31;;;0.21;100.00
42111;BME280;27766;52.174;5.456;2023-03-01T08:55:49;102923.09;;;0.38;100.00
42111;BME280;27766;52.174;5.456;2023-03-01T08:58:16;102921.41;;;0.47;100.00
42111;BME280;27766;52.174;5.456;2023-03-01T09:00:43;102921.78;;;0.60;100.00
42111;BME280;27766;52.174;5.456;2023-03-01T09:03:11;102905.19;;;0.55;100.00
42111;BME280;27766;52.174;5.456;2023-03-01T09:05:38;102913.81;;;0.66;100.00
42111;BME280;27766;52.174;5.456;2023-03-01T09:08:05;102903.06;;;0.79;100.00
42111;BME280;27766;52.174;5.456;2023-03-01T09:10:32;102912.13;;;0.94;100.00
42111;BME280;27766;52.174;5.456;2023-03-01T09:12:59;102910.25;;;1.02;100.00
42111;BME280;27766;52.174;5.456;2023-03-01T09:15:27;102905.97;;;1.12;100.00
42111;BME280;27766;52.174;5.456;2023-03-01T09:17:54;102904.38;;;1.22;100.00
42111;BME280;27766;52.174;5.456;2023-03-01T09:20:22;102893.19;;;1.31;100.00
42111;BME280;27766;52.174;5.456;2023-03-01T09:22:49;102892.41;;;1.51;100.00
42111;BME280;27766;52.174;5.456;2023-03-01T09:25:16;102889.88;;;1.61;100.00
42111;BME280;27766;52.174;5.456;2023-03-01T09:27:43;102887.03;;;1.77;100.00
42111;BME280;27766;52.174;5.456;2023-03-01T09:30:11;102875.47;;;1.91;100.00
42111;BME280;27766;52.174;5.456;2023-03-01T09:32:38;102880.22;;;2.07;100.00
42111;BME280;27766;52.174;5.456;2023-03-01T09:35:09;102882.16;;;2.20;100.00
42111;BME280;27766;52.174;5.456;2023-03-01T09:37:37;102879.75;;;2.32;100.00
42111;BME280;27766;52.174;5.456;2023-03-01T09:40:06;102863.88;;;2.36;100.00
42111;BME280;27766;52.174;5.456;2023-03-01T09:42:35;102877.84;;;2.50;100.00
42111;BME280;27766;52.174;5.456;2023-03-01T09:45:29;102870.41;;;2.63;100.00
42111;BME280;27766;52.174;5.456;2023-03-01T09:48:01;102865.53;;;2.77;100.00
42111;BME280;27766;52.174;5.456;2023-03-01T09:50:34;102869.13;;;2.89;100.00
42111;BME280;27766;52.174;5.456;2023-03-01T09:53:06;102871.78;;;3.01;100.00
42111;BME280;27766;52.174;5.456;2023-03-01T09:56:19;102880.22;;;3.10;100.00
42111;BME280;27766;52.174;5.456;2023-03-01T09:58:36;102873.25;;;3.20;100.00
42111;BME280;27766;52.174;5.456;2023-03-01T10:01:25;102873.13;;;3.28;100.00
42111;BME280;27766;52.174;5.456;2023-03-01T10:04:26;102868.47;;;3.35;100.00
42111;BME280;27766;52.174;5.456;2023-03-01T10:09:30;102876.38;;;3.48;100.00
42111;BME280;27766;52.174;5.456;2023-03-01T10:12:00;102861.41;;;3.42;100.00
42111;BME280;27766;52.174;5.456;2023-03-01T10:17:11;102872.09;;;3.59;100.00
42111;BME280;27766;52.174;5.456;2023-03-01T10:19:42;102870.66;;;3.62;100.00
42111;BME280;27766;52.174;5.456;2023-03-01T10:22:21;102850.47;;;3.55;100.00
42111;BME280;27766;52.174;5.456;2023-03-01T10:24:51;102860.28;;;3.71;100.00
42111;BME280;27766;52.174;5.456;2023-03-01T10:27:25;102847.94;;;3.77;100.00
42111;BME280;27766;52.174;5.456;2023-03-01T10:32:52;102834.16;;;3.87;95.79
42111;BME280;27766;52.174;5.456;2023-03-01T10:35:24;102852.06;;;3.98;95.34
42111;BME280;27766;52.174;5.456;2023-03-01T10:38:04;102851.50;;;4.02;91.45
42111;BME280;27766;52.174;5.456;2023-03-01T10:40:33;102849.28;;;4.06;87.98
42111;BME280;27766;52.174;5.456;2023-03-01T10:43:05;102849.09;;;4.15;90.96
42111;BME280;27766;52.174;5.456;2023-03-01T10:45:36;102839.75;;;4.16;83.64
42111;BME280;27766;52.174;5.456;2023-03-01T10:50:30;102843.66;;;4.22;76.37
42111;BME280;27766;52.174;5.456;2023-03-01T10:53:03;102833.63;;;4.25;79.25
42111;BME280;27766;52.174;5.456;2023-03-01T10:55:38;102817.25;;;4.23;73.83
42111;BME280;27766;52.174;5.456;2023-03-01T10:58:07;102826.66;;;4.35;74.50
42111;BME280;27766;52.174;5.456;2023-03-01T11:00:58;102819.84;;;4.35;69.43
42111;BME280;27766;52.174;5.456;2023-03-01T11:03:36;102808.56;;;4.33;69.11
42111;BME280;27766;52.174;5.456;2023-03-01T11:06:21;102807.47;;;4.41;66.07
42111;BME280;27766;52.174;5.456;2023-03-01T11:08:49;102792.34;;;4.44;69.41
42111;BME280;27766;52.174;5.456;2023-03-01T11:11:29;102795.91;;;4.47;63.02
42111;BME280;27766;52.174;5.456;2023-03-01T11:14:07;102800.25;;;4.48;63.85
42111;BME280;27766;52.174;5.456;2023-03-01T11:17:01;102791.91;;;4.50;66.17
42111;BME280;27766;52.174;5.456;2023-03-01T11:19:29;102792.25;;;4.55;67.08
42111;BME280;27766;52.174;5.456;2023-03-01T11:24:43;102788.56;;;4.51;68.64
42111;BME280;27766;52.174;5.456;2023-03-01T11:27:38;102782.63;;;4.52;66.01
42111;BME280;27766;52.174;5.456;2023-03-01T11:32:49;102786.22;;;4.66;63.04
42111;BME280;27766;52.174;5.456;2023-03-01T11:35:21;102784.56;;;4.67;63.17
42111;BME280;27766;52.174;5.456;2023-03-01T11:38:04;102786.44;;;4.69;61.46
42111;BME280;27766;52.174;5.456;2023-03-01T11:40:47;102783.22;;;4.72;59.61
42111;BME280;27766;52.174;5.456;2023-03-01T11:43:33;102769.16;;;4.67;59.95
42111;BME280;27766;52.174;5.456;2023-03-01T11:46:08;102769.72;;;4.74;62.68
42111;BME280;27766;52.174;5.456;2023-03-01T12:05:59;102757.53;;;4.96;60.42
42111;BME280;27766;52.174;5.456;2023-03-01T12:22:31;102764.66;;;5.12;59.87
42111;BME280;27766;52.174;5.456;2023-03-01T12:25:18;102761.22;;;5.11;61.19
42111;BME280;27766;52.174;5.456;2023-03-01T12:35:36;102737.72;;;5.30;58.73
42111;BME280;27766;52.174;5.456;2023-03-01T12:38:31;102731.03;;;5.32;59.43
42111;BME280;27766;52.174;5.456;2023-03-01T12:49:13;102732.19;;;5.49;57.74
42111;BME280;27766;52.174;5.456;2023-03-01T12:51:56;102726.28;;;5.50;57.51
42111;BME280;27766;52.174;5.456;2023-03-01T12:54:28;102722.09;;;5.52;56.16
42111;BME280;27766;52.174;5.456;2023-03-01T12:57:03;102708.97;;;5.48;56.53
42111;BME280;27766;52.174;5.456;2023-03-01T13:00:06;102711.75;;;5.51;55.53
42111;BME280;27766;52.174;5.456;2023-03-01T13:03:00;102687.97;;;5.42;54.90
42111;BME280;27766;52.174;5.456;2023-03-01T13:11:36;102701.47;;;5.51;54.63
42111;BME280;27766;52.174;5.456;2023-03-01T13:16:54;102681.13;;;5.54;52.00
42111;BME280;27766;52.174;5.456;2023-03-01T13:19:25;102668.47;;;5.57;53.35
42111;BME280;27766;52.174;5.456;2023-03-01T13:21:59;102667.31;;;5.65;53.45
42111;BME280;27766;52.174;5.456;2023-03-01T13:24:37;102659.06;;;5.69;53.12
42111;BME280;27766;52.174;5.456;2023-03-01T13:29:59;102666.38;;;5.77;54.09
42111;BME280;27766;52.174;5.456;2023-03-01T13:32:33;102645.44;;;5.70;54.51
42111;BME280;27766;52.174;5.456;2023-03-01T13:37:46;102657.19;;;5.80;56.22
42111;BME280;27766;52.174;5.456;2023-03-01T13:42:55;102642.66;;;5.81;54.08
42111;BME280;27766;52.174;5.456;2023-03-01T13:45:39;102642.19;;;5.86;55.07
42111;BME280;27766;52.174;5.456;2023-03-01T13:50:46;102627.25;;;5.94;55.27
42111;BME280;27766;52.174;5.456;2023-03-01T13:53:18;102630.03;;;5.97;56.60
42111;BME280;27766;52.174;5.456;2023-03-01T13:55:48;102626.69;;;5.98;56.94
42111;BME280;27766;52.174;5.456;2023-03-01T13:58:23;102620.31;;;6.05;53.61
42111;BME280;27766;52.174;5.456;2023-03-01T14:03:27;102614.84;;;6.00;53.71
42111;BME280;27766;52.174;5.456;2023-03-01T14:06:08;102609.41;;;6.09;53.89
42111;BME280;27766;52.174;5.456;2023-03-01T14:08:49;102607.13;;;6.14;54.18
42111;BME280;27766;52.174;5.456;2023-03-01T14:19:20;102581.72;;;6.18;50.99
42111;BME280;27766;52.174;5.456;2023-03-01T14:22:20;102579.31;;;6.22;51.27
42111;BME280;27766;52.174;5.456;2023-03-01T14:24:52;102551.03;;;6.22;51.07
42111;BME280;27766;52.174;5.456;2023-03-01T14:27:20;102570.50;;;6.45;51.81
42111;BME280;27766;52.174;5.456;2023-03-01T14:29:59;102575.13;;;6.64;52.63
42111;BME280;27766;52.174;5.456;2023-03-01T14:32:30;102555.63;;;6.68;51.62
42111;BME280;27766;52.174;5.456;2023-03-01T14:34:59;102556.41;;;6.95;50.26
42111;BME280;27766;52.174;5.456;2023-03-01T14:37:31;102566.91;;;7.13;48.09
42111;BME280;27766;52.174;5.456;2023-03-01T14:40:01;102562.47;;;7.25;48.33
42111;BME280;27766;52.174;5.456;2023-03-01T14:42:34;102544.09;;;7.19;47.27
42111;BME280;27766;52.174;5.456;2023-03-01T14:45:03;102550.50;;;7.41;45.96
42111;BME280;27766;52.174;5.456;2023-03-01T14:47:33;102550.06;;;7.48;45.81